createdAt,value
2022-11-06T00:01:34.909Z,8.93
2022-11-06T00:04:01.939Z,7.93
2022-11-06T00:06:47.251Z,7.73
2022-11-06T00:09:16.138Z,7.63
2022-11-06T00:11:43.430Z,8.57
2022-11-06T00:14:10.606Z,8.13
2022-11-06T00:16:39.048Z,8.32
2022-11-06T00:19:07.123Z,7.87
2022-11-06T00:21:34.832Z,8.37
2022-11-06T00:24:04.398Z,7.10
2022-11-06T00:26:32.272Z,7.97
2022-11-06T00:28:59.829Z,6.87
2022-11-06T00:31:29.268Z,8.00
2022-11-06T00:33:57.889Z,8.77
2022-11-06T00:36:26.281Z,6.80
2022-11-06T00:38:54.953Z,6.93
2022-11-06T00:41:22.720Z,7.40
2022-11-06T00:43:56.191Z,8.40
2022-11-06T00:46:23.773Z,7.73
2022-11-06T00:48:51.972Z,7.90
2022-11-06T00:51:21.875Z,7.70
2022-11-06T00:53:53.817Z,8.00
2022-11-06T00:56:21.232Z,7.47
2022-11-06T00:58:48.161Z,8.27
2022-11-06T01:01:19.709Z,8.10
2022-11-06T01:03:52.107Z,7.93
2022-11-06T01:06:22.810Z,8.00
2022-11-06T01:08:50.699Z,7.97
2022-11-06T01:11:21.071Z,8.77
2022-11-06T01:13:51.097Z,8.60
2022-11-06T01:16:18.573Z,8.40
2022-11-06T01:18:46.323Z,7.90
2022-11-06T01:21:22.928Z,8.30
2022-11-06T01:23:54.836Z,8.27
2022-11-06T01:26:37.248Z,8.40
2022-11-06T01:29:06.531Z,8.80
2022-11-06T01:31:34.922Z,8.37
2022-11-06T01:34:02.735Z,9.57
2022-11-06T01:36:30.509Z,9.00
2022-11-06T01:39:00.722Z,9.00
2022-11-06T01:41:36.958Z,8.40
2022-11-06T01:44:09.656Z,9.43
2022-11-06T01:46:37.303Z,8.60
2022-11-06T01:49:09.407Z,9.13
2022-11-06T01:51:47.150Z,9.07
2022-11-06T01:54:15.293Z,9.75
2022-11-06T01:56:44.712Z,9.23
2022-11-06T01:59:17.630Z,8.33
2022-11-06T02:01:45.004Z,9.70
2022-11-06T02:04:28.535Z,9.00
2022-11-06T02:06:57.476Z,10.30
2022-11-06T02:09:25.523Z,8.70
2022-11-06T02:12:14.153Z,9.33
2022-11-06T02:14:45.837Z,10.07
2022-11-06T02:17:29.500Z,10.77
2022-11-06T02:20:11.599Z,8.77
2022-11-06T02:22:56.672Z,9.87
2022-11-06T02:26:24.294Z,10.80
2022-11-06T02:28:56.219Z,9.90
2022-11-06T02:31:30.915Z,11.30
2022-11-06T02:34:06.539Z,10.30
2022-11-06T02:36:38.389Z,10.27
2022-11-06T02:39:10.710Z,11.33
2022-11-06T02:41:42.468Z,9.93
2022-11-06T02:44:17.507Z,10.80
2022-11-06T02:46:49.754Z,10.97
2022-11-06T02:49:31.372Z,10.35
2022-11-06T02:52:03.955Z,9.93
2022-11-06T02:54:35.387Z,10.67
2022-11-06T02:57:07.238Z,9.88
2022-11-06T02:59:42.593Z,11.02
2022-11-06T03:02:16.531Z,10.33
2022-11-06T03:05:05.859Z,11.02
2022-11-06T03:07:48.284Z,11.85
2022-11-06T03:10:15.316Z,12.02
2022-11-06T03:12:55.885Z,12.37
2022-11-06T03:15:38.759Z,12.25
2022-11-06T03:18:15.888Z,14.25
2022-11-06T03:21:06.340Z,13.33
2022-11-06T03:23:59.150Z,13.07
2022-11-06T03:26:48.890Z,12.68
2022-11-06T03:29:47.063Z,14.05
2022-11-06T03:32:24.408Z,12.77
2022-11-06T03:34:55.343Z,12.70
2022-11-06T03:37:27.722Z,11.85
2022-11-06T03:39:57.830Z,12.13
2022-11-06T03:42:28.404Z,12.80
2022-11-06T03:45:03.164Z,12.60
2022-11-06T03:47:35.027Z,15.73
2022-11-06T03:50:14.315Z,12.38
2022-11-06T03:52:46.796Z,12.70
2022-11-06T03:55:27.600Z,11.60
2022-11-06T03:57:56.655Z,11.95
2022-11-06T04:00:23.829Z,12.63
2022-11-06T04:03:06.308Z,13.82
2022-11-06T04:05:38.293Z,12.63
2022-11-06T04:08:26.525Z,12.75
2022-11-06T04:11:16.438Z,13.30
2022-11-06T04:14:04.384Z,13.52
2022-11-06T04:16:41.264Z,11.60
2022-11-06T04:19:19.152Z,12.02
2022-11-06T04:21:57.430Z,13.05
2022-11-06T04:25:11.113Z,12.40
2022-11-06T04:28:07.483Z,13.10
2022-11-06T04:31:05.261Z,11.73
2022-11-06T04:33:56.941Z,12.13
2022-11-06T04:36:39.421Z,11.95
2022-11-06T04:39:31.208Z,12.43
2022-11-06T04:42:04.899Z,11.27
2022-11-06T04:44:40.062Z,10.95
2022-11-06T04:47:11.499Z,12.90
2022-11-06T04:49:41.105Z,10.53
2022-11-06T04:52:12.829Z,10.85
2022-11-06T04:54:40.075Z,11.60
2022-11-06T04:57:06.904Z,10.68
2022-11-06T04:59:36.792Z,11.02
2022-11-06T05:02:05.390Z,10.00
2022-11-06T05:04:32.708Z,9.30
2022-11-06T05:07:00.015Z,11.02
2022-11-06T05:09:26.817Z,10.35
2022-11-06T05:11:53.673Z,9.85
2022-11-06T05:14:20.500Z,9.85
2022-11-06T05:16:47.312Z,10.48
2022-11-06T05:19:14.176Z,10.50
2022-11-06T05:21:59.890Z,10.55
2022-11-06T05:24:26.730Z,10.15
2022-11-06T05:26:59.150Z,12.00
2022-11-06T05:29:26.760Z,11.77
2022-11-06T05:31:53.697Z,9.73
2022-11-06T05:34:21.518Z,11.02
2022-11-06T05:36:48.296Z,10.77
2022-11-06T05:39:15.084Z,10.83
2022-11-06T05:41:41.938Z,10.85
2022-11-06T05:44:08.893Z,11.50
2022-11-06T05:46:48.065Z,11.00
2022-11-06T05:49:15.339Z,12.50
2022-11-06T05:51:42.177Z,9.93
2022-11-06T05:54:08.936Z,11.20
2022-11-06T05:56:35.783Z,10.52
2022-11-06T05:59:02.792Z,10.55
2022-11-06T06:01:29.784Z,10.57
2022-11-06T06:03:56.697Z,10.00
2022-11-06T06:06:23.676Z,9.55
2022-11-06T06:08:50.481Z,8.97
2022-11-06T06:11:17.310Z,9.23
2022-11-06T06:13:44.382Z,9.73
2022-11-06T06:16:11.298Z,10.38
2022-11-06T06:18:38.170Z,9.75
2022-11-06T06:21:05.206Z,9.35
2022-11-06T06:23:32.877Z,10.55
2022-11-06T06:25:59.721Z,9.52
2022-11-06T06:28:26.878Z,9.73
2022-11-06T06:30:58.583Z,10.07
2022-11-06T06:33:27.931Z,8.80
2022-11-06T06:35:54.725Z,9.40
2022-11-06T06:38:21.593Z,9.15
2022-11-06T06:40:48.433Z,9.05
2022-11-06T06:43:15.211Z,8.57
2022-11-06T06:45:42.054Z,8.75
2022-11-06T06:48:09.444Z,9.40
2022-11-06T06:50:36.253Z,8.85
2022-11-06T06:53:03.859Z,8.88
2022-11-06T06:55:30.690Z,8.98
2022-11-06T06:58:01.816Z,8.15
2022-11-06T07:00:29.318Z,9.35
2022-11-06T07:02:56.161Z,8.38
2022-11-06T07:05:23.311Z,8.40
2022-11-06T07:07:50.405Z,7.50
2022-11-06T07:10:17.803Z,8.70
2022-11-06T07:12:44.854Z,8.25
2022-11-06T07:15:11.963Z,7.80
2022-11-06T07:17:38.839Z,8.10
2022-11-06T07:20:06.760Z,7.30
2022-11-06T07:22:37.290Z,7.25
2022-11-06T07:25:05.576Z,7.18
2022-11-06T07:27:32.438Z,8.18
2022-11-06T07:30:00.611Z,7.57
2022-11-06T07:32:28.151Z,6.75
2022-11-06T07:34:54.953Z,7.13
2022-11-06T07:37:21.860Z,5.90
2022-11-06T07:39:48.792Z,7.07
2022-11-06T07:42:15.624Z,7.45
2022-11-06T07:44:42.619Z,7.05
2022-11-06T07:47:09.403Z,8.07
2022-11-06T07:49:36.204Z,7.43
2022-11-06T07:52:05.304Z,6.97
2022-11-06T07:54:32.167Z,7.45
2022-11-06T07:56:58.988Z,7.38
2022-11-06T07:59:25.777Z,7.40
2022-11-06T08:01:52.757Z,7.57
2022-11-06T08:04:19.650Z,8.00
2022-11-06T08:06:46.554Z,6.70
2022-11-06T08:09:13.333Z,7.57
2022-11-06T08:11:40.122Z,7.03
2022-11-06T08:14:07.069Z,7.28
2022-11-06T08:16:33.901Z,7.18
2022-11-06T08:19:00.729Z,7.15
2022-11-06T08:21:28.377Z,7.38
2022-11-06T08:23:58.898Z,7.65
2022-11-06T08:26:26.058Z,7.32
2022-11-06T08:28:52.986Z,7.40
2022-11-06T08:31:21.097Z,7.70
2022-11-06T08:33:47.903Z,7.80
2022-11-06T08:36:15.189Z,7.82
2022-11-06T08:38:41.984Z,7.90
2022-11-06T08:41:13.444Z,8.00
2022-11-06T08:43:40.738Z,6.93
2022-11-06T08:46:11.436Z,7.33
2022-11-06T08:48:38.319Z,7.10
2022-11-06T08:51:06.221Z,7.10
2022-11-06T08:53:33.481Z,7.20
2022-11-06T08:56:03.546Z,6.50
2022-11-06T08:58:30.391Z,6.80
2022-11-06T09:00:57.338Z,6.82
2022-11-06T09:03:24.214Z,6.40
2022-11-06T09:05:51.026Z,6.70
2022-11-06T09:08:17.964Z,6.68
2022-11-06T09:10:45.514Z,7.65
2022-11-06T09:13:13.219Z,7.75
2022-11-06T09:15:40.848Z,6.45
2022-11-06T09:18:08.387Z,6.40
2022-11-06T09:20:35.770Z,6.28
2022-11-06T09:23:04.930Z,6.73
2022-11-06T09:25:32.378Z,6.87
2022-11-06T09:28:00.078Z,6.45
2022-11-06T09:30:30.083Z,6.10
2022-11-06T09:33:00.219Z,6.75
2022-11-06T09:35:28.969Z,5.90
2022-11-06T09:38:07.299Z,6.38
2022-11-06T09:40:46.771Z,6.25
2022-11-06T09:44:05.101Z,6.20
2022-11-06T09:46:37.621Z,6.03
2022-11-06T09:49:26.443Z,6.60
2022-11-06T09:52:12.252Z,7.30
2022-11-06T09:54:56.605Z,7.20
2022-11-06T09:57:39.613Z,6.10
2022-11-06T10:00:12.112Z,6.40
2022-11-06T10:03:10.621Z,7.82
2022-11-06T10:05:39.769Z,6.35
2022-11-06T10:08:17.022Z,6.87
2022-11-06T10:11:08.085Z,5.70
2022-11-06T10:13:40.812Z,6.43
2022-11-06T10:16:17.605Z,7.90
2022-11-06T10:18:44.374Z,7.20
2022-11-06T10:21:18.384Z,6.53
2022-11-06T10:23:53.420Z,5.80
2022-11-06T10:26:39.619Z,5.30
2022-11-06T10:29:42.027Z,5.20
2022-11-06T10:32:28.810Z,5.70
2022-11-06T10:35:01.887Z,5.70
2022-11-06T10:37:38.066Z,5.63
2022-11-06T10:40:07.137Z,6.80
2022-11-06T10:42:39.871Z,6.60
2022-11-06T10:45:14.776Z,6.97
2022-11-06T10:47:48.190Z,6.03
2022-11-06T10:50:17.083Z,6.07
2022-11-06T10:52:51.938Z,6.80
2022-11-06T10:55:46.180Z,6.35
2022-11-06T10:58:17.380Z,6.97
2022-11-06T11:00:47.913Z,7.07
2022-11-06T11:03:24.196Z,5.97
2022-11-06T11:05:51.034Z,5.83
2022-11-06T11:08:39.828Z,7.35
2022-11-06T11:11:23.739Z,6.70
2022-11-06T11:14:10.471Z,6.70
2022-11-06T11:16:44.095Z,6.57
2022-11-06T11:19:37.504Z,6.30
2022-11-06T11:22:16.545Z,6.37
2022-11-06T11:25:03.235Z,7.03
2022-11-06T11:27:32.787Z,5.67
2022-11-06T11:29:59.774Z,6.50
2022-11-06T11:32:30.236Z,7.10
2022-11-06T11:34:58.108Z,7.00
2022-11-06T11:37:33.330Z,6.70
2022-11-06T11:40:23.579Z,6.20
2022-11-06T11:42:50.523Z,6.77
2022-11-06T11:45:20.166Z,6.63
2022-11-06T11:47:49.872Z,5.63
2022-11-06T11:50:16.648Z,6.40
2022-11-06T11:52:48.409Z,6.80
2022-11-06T11:55:17.620Z,5.77
2022-11-06T11:57:48.498Z,6.70
2022-11-06T12:00:21.785Z,5.43
2022-11-06T12:02:51.570Z,5.50
2022-11-06T12:05:43.550Z,5.60
2022-11-06T12:08:22.115Z,5.90
2022-11-06T12:10:49.952Z,4.47
2022-11-06T12:13:21.672Z,4.95
2022-11-06T12:16:09.576Z,5.13
2022-11-06T12:18:47.023Z,6.60
2022-11-06T12:21:22.975Z,5.15
2022-11-06T12:24:08.646Z,5.87
2022-11-06T12:26:56.539Z,6.40
2022-11-06T12:29:59.850Z,5.40
2022-11-06T12:32:44.530Z,5.17
2022-11-06T12:35:31.406Z,5.23
2022-11-06T12:38:13.545Z,4.53
2022-11-06T12:40:45.155Z,4.87
2022-11-06T12:43:50.334Z,5.30
2022-11-06T12:46:29.103Z,4.80
2022-11-06T12:49:20.238Z,4.00
2022-11-06T12:52:15.106Z,4.90
2022-11-06T12:55:03.481Z,4.07
2022-11-06T12:57:34.794Z,3.97
2022-11-06T13:00:26.022Z,3.43
2022-11-06T13:03:23.488Z,3.57
2022-11-06T13:06:28.489Z,3.30
2022-11-06T13:09:08.981Z,3.60
2022-11-06T13:11:50.937Z,4.15
2022-11-06T13:14:32.453Z,4.00
2022-11-06T13:17:25.432Z,4.40
2022-11-06T13:20:03.817Z,4.67
2022-11-06T13:22:37.627Z,5.20
2022-11-06T13:25:28.326Z,4.77
2022-11-06T13:28:16.799Z,4.23
2022-11-06T13:30:44.531Z,4.70
2022-11-06T13:33:14.098Z,4.43
2022-11-06T13:35:43.704Z,4.43
2022-11-06T13:38:17.741Z,6.67
2022-11-06T13:40:49.292Z,7.27
2022-11-06T13:43:24.479Z,6.50
2022-11-06T13:46:25.540Z,6.00
2022-11-06T13:49:36.920Z,5.27
2022-11-06T13:52:21.292Z,6.00
2022-11-06T13:55:25.499Z,6.23
2022-11-06T13:58:04.296Z,6.23
2022-11-06T14:01:00.110Z,7.13
2022-11-06T14:03:59.508Z,6.50
2022-11-06T14:06:30.898Z,5.80
2022-11-06T14:09:01.996Z,6.37
2022-11-06T14:11:32.290Z,5.87
2022-11-06T14:14:05.559Z,6.00
2022-11-06T14:16:55.433Z,6.70
2022-11-06T14:19:29.920Z,6.03
2022-11-06T14:22:30.723Z,7.68
2022-11-06T14:25:01.469Z,6.30
2022-11-06T14:27:29.204Z,6.10
2022-11-06T14:30:15.256Z,6.20
2022-11-06T14:32:44.728Z,5.65
2022-11-06T14:35:29.805Z,5.00
2022-11-06T14:38:29.315Z,6.30
2022-11-06T14:40:56.713Z,5.63
2022-11-06T14:43:33.553Z,5.28
2022-11-06T14:46:16.220Z,5.18
2022-11-06T14:48:46.026Z,5.03
2022-11-06T14:51:14.643Z,5.23
2022-11-06T14:53:54.547Z,5.85
2022-11-06T14:56:31.333Z,5.80
2022-11-06T14:59:06.755Z,4.65
2022-11-06T15:01:36.133Z,5.05
2022-11-06T15:04:19.150Z,5.55
2022-11-06T15:06:51.482Z,4.75
2022-11-06T15:09:24.366Z,5.30
2022-11-06T15:11:59.762Z,4.18
2022-11-06T15:14:26.781Z,4.30
2022-11-06T15:17:04.238Z,5.18
2022-11-06T15:19:51.032Z,4.80
2022-11-06T15:22:40.134Z,4.50
2022-11-06T15:25:23.258Z,4.50
2022-11-06T15:28:15.987Z,5.10
2022-11-06T15:30:52.231Z,4.63
2022-11-06T15:33:41.396Z,5.35
2022-11-06T15:36:13.876Z,5.93
2022-11-06T15:38:42.608Z,5.60
2022-11-06T15:41:17.960Z,6.00
2022-11-06T15:43:46.947Z,5.47
2022-11-06T15:46:19.579Z,7.35
2022-11-06T15:48:46.471Z,7.10
2022-11-06T15:51:28.558Z,6.65
2022-11-06T15:53:55.747Z,8.02
2022-11-06T15:56:33.602Z,8.70
2022-11-06T15:59:11.536Z,8.60
2022-11-06T16:01:39.557Z,9.63
2022-11-06T16:04:15.951Z,9.32
2022-11-06T16:06:44.335Z,9.10
2022-11-06T16:09:20.385Z,10.13
2022-11-06T16:11:49.993Z,10.73
2022-11-06T16:14:17.251Z,10.25
2022-11-06T16:16:52.244Z,9.38
2022-11-06T16:19:36.182Z,10.35
2022-11-06T16:22:13.182Z,9.60
2022-11-06T16:24:54.967Z,8.60
2022-11-06T16:27:23.527Z,9.55
2022-11-06T16:29:59.213Z,8.98
2022-11-06T16:32:29.483Z,8.40
2022-11-06T16:34:56.425Z,8.02
2022-11-06T16:37:29.881Z,10.93
2022-11-06T16:39:59.535Z,9.40
2022-11-06T16:42:33.370Z,9.32
2022-11-06T16:45:31.314Z,9.07
2022-11-06T16:48:07.219Z,9.68
2022-11-06T16:50:53.379Z,9.60
2022-11-06T16:53:26.809Z,9.35
2022-11-06T16:55:56.227Z,10.93
2022-11-06T16:58:23.309Z,9.98
2022-11-06T17:01:20.463Z,9.57
2022-11-06T17:04:01.423Z,9.65
2022-11-06T17:06:34.392Z,10.52
2022-11-06T17:09:09.987Z,8.80
2022-11-06T17:11:37.231Z,9.38
2022-11-06T17:14:23.600Z,9.15
2022-11-06T17:16:56.279Z,9.15
2022-11-06T17:19:24.292Z,8.68
2022-11-06T17:21:51.451Z,8.23
2022-11-06T17:27:06.756Z,8.43
2022-11-06T17:29:36.186Z,8.63
2022-11-06T17:32:03.639Z,8.20
2022-11-06T17:34:30.405Z,10.18
2022-11-06T17:36:57.245Z,9.23
2022-11-06T17:39:24.097Z,9.88
2022-11-06T17:41:50.909Z,8.63
2022-11-06T17:44:18.371Z,9.45
2022-11-06T17:46:46.710Z,9.38
2022-11-06T17:49:17.977Z,8.32
2022-11-06T17:52:00.126Z,9.32
2022-11-06T17:54:37.065Z,9.02
2022-11-06T17:57:06.954Z,8.50
2022-11-06T17:59:34.936Z,8.32
2022-11-06T18:02:02.178Z,10.00
2022-11-06T18:04:31.490Z,8.73
2022-11-06T18:06:58.344Z,9.13
2022-11-06T18:09:25.205Z,8.73
2022-11-06T18:11:53.809Z,10.15
2022-11-06T18:14:21.832Z,9.43
2022-11-06T18:16:49.186Z,10.75
2022-11-06T18:19:19.886Z,8.65
2022-11-06T18:21:47.778Z,9.90
2022-11-06T18:24:14.940Z,9.25
2022-11-06T18:26:41.868Z,9.02
2022-11-06T18:29:10.550Z,8.73
2022-11-06T18:31:37.459Z,9.65
2022-11-06T18:34:05.006Z,10.15
2022-11-06T18:36:32.793Z,10.30
2022-11-06T18:38:59.565Z,11.55
2022-11-06T18:41:26.412Z,10.00
2022-11-06T18:44:00.036Z,9.40
2022-11-06T18:46:28.044Z,10.45
2022-11-06T18:48:58.746Z,9.90
2022-11-06T18:51:35.005Z,9.05
2022-11-06T18:54:05.698Z,9.30
2022-11-06T18:56:33.644Z,9.43
2022-11-06T18:59:00.499Z,9.25
2022-11-06T19:01:28.679Z,9.27
2022-11-06T19:03:55.659Z,9.68
2022-11-06T19:06:22.443Z,8.82
2022-11-06T19:08:49.267Z,8.90
2022-11-06T19:11:18.094Z,9.52
2022-11-06T19:13:48.176Z,8.63
2022-11-06T19:16:16.754Z,9.25
2022-11-06T19:18:43.560Z,9.18
2022-11-06T19:21:11.726Z,9.82
2022-11-06T19:23:40.847Z,8.73
2022-11-06T19:26:30.480Z,10.20
2022-11-06T19:28:58.429Z,9.88
2022-11-06T19:31:29.222Z,8.82
2022-11-06T19:34:00.551Z,8.52
2022-11-06T19:36:28.779Z,10.45
2022-11-06T19:38:57.350Z,9.52
2022-11-06T19:41:25.657Z,8.70
2022-11-06T19:43:52.510Z,9.25
2022-11-06T19:46:24.087Z,9.85
2022-11-06T19:48:54.438Z,9.95
2022-11-06T19:51:21.328Z,10.15
2022-11-06T19:53:53.263Z,10.30
2022-11-06T19:56:21.430Z,11.55
2022-11-06T19:58:50.103Z,14.13
2022-11-06T20:01:16.976Z,14.35
2022-11-06T20:03:43.791Z,14.30
2022-11-06T20:06:11.141Z,13.30
2022-11-06T20:08:38.970Z,15.10
2022-11-06T20:11:09.005Z,14.63
2022-11-06T20:13:39.150Z,15.35
2022-11-06T20:16:08.375Z,14.85
2022-11-06T20:18:35.911Z,13.40
2022-11-06T20:21:08.697Z,14.02
2022-11-06T20:23:36.376Z,15.75
2022-11-06T20:26:04.733Z,15.70
2022-11-06T20:28:32.501Z,15.73
2022-11-06T20:30:59.361Z,15.20
2022-11-06T20:33:26.688Z,16.52
2022-11-06T20:35:53.515Z,16.00
2022-11-06T20:38:20.810Z,17.20
2022-11-06T20:40:47.580Z,17.75
2022-11-06T20:43:14.664Z,17.55
2022-11-06T20:45:41.668Z,15.45
2022-11-06T20:48:09.313Z,15.15
2022-11-06T20:50:36.170Z,14.43
2022-11-06T20:53:03.007Z,14.57
2022-11-06T20:55:30.041Z,16.33
2022-11-06T20:57:56.867Z,15.32
2022-11-06T21:00:23.745Z,15.23
2022-11-06T21:02:51.780Z,15.43
2022-11-06T21:05:19.507Z,15.63
2022-11-06T21:07:46.367Z,13.60
2022-11-06T21:10:13.130Z,16.92
2022-11-06T21:12:39.969Z,16.38
2022-11-06T21:15:07.350Z,16.85
2022-11-06T21:17:35.223Z,15.07
2022-11-06T21:20:02.089Z,15.40
2022-11-06T21:22:28.867Z,15.75
2022-11-06T21:24:55.651Z,15.75
2022-11-06T21:27:22.463Z,16.50
2022-11-06T21:29:49.373Z,16.42
2022-11-06T21:32:16.191Z,15.38
2022-11-06T21:34:43.044Z,15.93
2022-11-06T21:37:09.881Z,16.77
2022-11-06T21:39:36.968Z,16.88
2022-11-06T21:42:06.148Z,16.40
2022-11-06T21:44:32.970Z,15.35
2022-11-06T21:47:00.364Z,17.38
2022-11-06T21:49:27.233Z,17.30
2022-11-06T21:52:14.029Z,16.35
2022-11-06T21:54:59.304Z,19.02
2022-11-06T21:57:26.116Z,17.42
2022-11-06T21:59:52.893Z,15.88
2022-11-06T22:02:19.828Z,15.30
2022-11-06T22:04:47.081Z,15.23
2022-11-06T22:07:13.882Z,17.05
2022-11-06T22:09:40.668Z,16.45
2022-11-06T22:12:07.515Z,17.60
2022-11-06T22:14:34.372Z,16.40
2022-11-06T22:17:01.142Z,17.13
2022-11-06T22:19:27.997Z,16.70
2022-11-06T22:21:54.923Z,17.55
2022-11-06T22:24:21.704Z,16.00
2022-11-06T22:26:48.572Z,16.30
2022-11-06T22:29:15.502Z,18.70
2022-11-06T22:31:42.260Z,15.65
2022-11-06T22:34:11.958Z,17.67
2022-11-06T22:36:39.411Z,16.92
2022-11-06T22:39:08.939Z,18.95
2022-11-06T22:41:36.379Z,17.23
2022-11-06T22:44:04.633Z,17.38
2022-11-06T22:46:32.105Z,17.58
2022-11-06T22:48:59.452Z,17.17
2022-11-06T22:51:28.791Z,17.50
2022-11-06T22:53:56.282Z,19.00
2022-11-06T22:56:24.517Z,16.17
2022-11-06T22:58:56.244Z,16.35
2022-11-06T23:01:24.901Z,16.25
2022-11-06T23:03:56.807Z,15.30
2022-11-06T23:06:25.161Z,16.80
2022-11-06T23:08:52.556Z,15.93
2022-11-06T23:11:20.142Z,17.88
2022-11-06T23:13:47.073Z,16.35
2022-11-06T23:16:39.183Z,16.02
2022-11-06T23:19:06.818Z,16.33
2022-11-06T23:21:33.702Z,16.13
2022-11-06T23:24:00.860Z,16.42
2022-11-06T23:26:27.752Z,16.60
2022-11-06T23:28:55.910Z,15.40
2022-11-06T23:31:23.578Z,15.65
2022-11-06T23:33:50.503Z,15.70
2022-11-06T23:36:18.713Z,16.88
2022-11-06T23:38:45.734Z,16.92
2022-11-06T23:41:32.974Z,16.52
2022-11-06T23:44:00.762Z,15.07
2022-11-06T23:46:32.271Z,15.30
2022-11-06T23:49:00.042Z,16.33
2022-11-06T23:51:27.518Z,14.88
2022-11-06T23:53:54.964Z,17.58
2022-11-06T23:56:21.793Z,16.50
2022-11-06T23:58:48.983Z,14.70
